San Francisco, Colorado
Current Conditions -  °F | °C
As of 8:49 AM on Saturday 20 Dec 2014 (Local Time) from KVTP Reporting Station
Clear Clear  
Wind Chill: 11°   Ceiling: Unl
Heat Index: 19°   Visibility: 10mi
Dew Point: 10°   Wind: 6mph
Humidity: 68%   Direction: 190°S
Pressure: 30.1"   Gusts: NA
Location:  37.1568°N, 105.289°W
Report Text: KVTP 201549Z AUTO 19005KT 10SM CLR M07/M12 A3010 RMK AO2
Loading
Personal Weather Stations






























Interactive Weather Map New forecast layout! Learn more

10-Day Weather Forecast

Advertisements
Track Severe Weather on mobile